Strona główna
METAR-TAF:

METAR-TAF

Lotnisko :

Chicago Executive Airport

Wheeling / Prospect Heights, Illinois, Stany Zjednoczone

Szerokość geograficzna: 42-07-15N, Długość geograficzna: 087-54-17W, wysokość: 197 m

Aktualna obserwacja pogody

Raport powstał 31 minut temu, godzina 19:52 UTC
Wiatr 12 kt od południowo-południowy zachód w porywach dochodzący do 20 kt
Temperatura 36°C
Wilgotność 47%
Ciśnienie 1011 hPa
Widzialność: 16.1 km
Mało chmury na wysokości 4800 ft
Rozproszone chmury na wysokości 6000 ft

METAR: KPWK 201952Z 21012G20KT 10SM FEW048 SCT060 36/23 A2985 RMK AO2 SLP099 T03560228 $

czas: 15:23 (20:23 UTC)


TAF: brakujący

Obserwacja i prognoza pogody dla ponad 4000 lotnisk (raport METAR i TAF).

Dostępne stacje oznaczono żółtymi i czerwonymi punktami na mapie.

Najedź kursorem aby zobaczyć nazwę stacji.

Kliknij aby zobaczyć obserwacje i prognozy pogody.

Aby zmienić mapę: kliknij na zielony przycisk z czarnym krzyżykiem, aby powiększyć; na zielony przycisk z myślnikiem, aby pomniejszyć; na zielone strzałki, aby przejść do map sąsiednich.


METAR-TAF: